createdAt,value
2022-10-04T00:01:25.345Z,101931.28
2022-10-04T00:04:09.223Z,101932.97
2022-10-04T00:06:37.349Z,101931.19
2022-10-04T00:09:18.792Z,101924.44
2022-10-04T00:11:46.444Z,101912.34
2022-10-04T00:14:19.328Z,101905.19
2022-10-04T00:16:45.847Z,101912.91
2022-10-04T00:19:15.270Z,101913.44
2022-10-04T00:21:53.864Z,101912.47
2022-10-04T00:24:24.337Z,101910.28
2022-10-04T00:26:50.668Z,101915.09
2022-10-04T00:29:26.536Z,101904.88
2022-10-04T00:32:07.888Z,101898.00
2022-10-04T00:34:47.217Z,101898.84
2022-10-04T00:37:14.387Z,101895.41
2022-10-04T00:39:42.539Z,101888.53
2022-10-04T00:42:17.662Z,101902.41
2022-10-04T00:44:51.403Z,101893.75
2022-10-04T00:47:53.140Z,101890.59
2022-10-04T00:50:29.824Z,101896.28
2022-10-04T00:52:57.851Z,101899.56
2022-10-04T00:55:39.930Z,101895.81
2022-10-04T00:58:13.290Z,101892.53
2022-10-04T01:00:40.629Z,101901.63
2022-10-04T01:03:27.262Z,101895.41
2022-10-04T01:05:57.807Z,101903.13
2022-10-04T01:08:31.239Z,101900.66
2022-10-04T01:11:09.273Z,101903.00
2022-10-04T01:13:38.696Z,101895.28
2022-10-04T01:16:11.453Z,101889.22
2022-10-04T01:18:38.071Z,101888.16
2022-10-04T01:21:04.497Z,101895.16
2022-10-04T01:23:31.929Z,101900.25
2022-10-04T01:25:59.005Z,101892.41
2022-10-04T01:28:26.369Z,101892.25
2022-10-04T01:30:53.395Z,101892.72
2022-10-04T01:33:19.828Z,101881.13
2022-10-04T01:35:46.869Z,101877.28
2022-10-04T01:38:13.345Z,101869.75
2022-10-04T01:40:46.601Z,101867.00
2022-10-04T01:43:17.020Z,101864.53
2022-10-04T01:45:47.932Z,101853.00
2022-10-04T01:48:16.667Z,101868.13
2022-10-04T01:50:56.038Z,101863.56
2022-10-04T01:53:25.391Z,101860.13
2022-10-04T01:55:54.530Z,101859.31
2022-10-04T01:58:23.467Z,101862.72
2022-10-04T02:00:54.434Z,101868.38
2022-10-04T02:03:29.115Z,101866.75
2022-10-04T02:05:58.487Z,101858.47
2022-10-04T02:08:30.340Z,101853.53
2022-10-04T02:10:57.551Z,101853.53
2022-10-04T02:13:27.647Z,101860.13
2022-10-04T02:15:54.263Z,101848.72
2022-10-04T02:18:22.257Z,101841.44
2022-10-04T02:20:49.894Z,101856.03
2022-10-04T02:23:18.341Z,101849.00
2022-10-04T02:25:44.708Z,101853.53
2022-10-04T02:28:13.125Z,101842.00
2022-10-04T02:30:41.640Z,101837.75
2022-10-04T02:33:08.244Z,101824.94
2022-10-04T02:35:36.352Z,101830.16
2022-10-04T02:38:06.677Z,101815.88
2022-10-04T02:40:57.039Z,101816.19
2022-10-04T02:43:30.303Z,101810.13
2022-10-04T02:46:07.223Z,101803.00
2022-10-04T02:48:33.582Z,101807.94
2022-10-04T02:51:20.188Z,101806.31
2022-10-04T02:53:52.829Z,101804.38
2022-10-04T02:56:19.614Z,101800.25
2022-10-04T02:58:46.317Z,101800.50
2022-10-04T03:01:17.669Z,101801.63
2022-10-04T03:03:46.208Z,101793.63
2022-10-04T03:06:15.593Z,101796.56
2022-10-04T03:09:08.360Z,101799.97
2022-10-04T03:11:37.626Z,101796.41
2022-10-04T03:14:05.930Z,101795.03
2022-10-04T03:16:38.054Z,101790.88
2022-10-04T03:19:05.855Z,101789.53
2022-10-04T03:21:33.454Z,101795.03
2022-10-04T03:24:01.592Z,101789.38
2022-10-04T03:26:29.000Z,101784.00
2022-10-04T03:28:57.083Z,101772.19
2022-10-04T03:31:26.757Z,101769.47
2022-10-04T03:33:57.476Z,101754.75
2022-10-04T03:36:25.154Z,101764.66
2022-10-04T03:38:53.107Z,101761.88
2022-10-04T03:41:19.654Z,101756.25
2022-10-04T03:43:49.351Z,101764.09
2022-10-04T03:46:17.236Z,101761.22
2022-10-04T03:48:45.875Z,101762.19
2022-10-04T03:51:17.253Z,101766.84
2022-10-04T03:53:45.099Z,101763.44
2022-10-04T03:56:20.233Z,101767.97
2022-10-04T03:58:47.481Z,101766.03
2022-10-04T04:01:32.912Z,101766.47
2022-10-04T04:04:02.496Z,101759.03
2022-10-04T04:06:33.579Z,101751.22
2022-10-04T04:09:00.664Z,101758.22
2022-10-04T04:11:27.705Z,101764.00
2022-10-04T04:13:58.985Z,101759.19
2022-10-04T04:16:28.999Z,101759.50
2022-10-04T04:18:59.018Z,101764.00
2022-10-04T04:21:25.623Z,101763.31
2022-10-04T04:24:03.996Z,101760.56
2022-10-04T04:26:39.795Z,101757.69
2022-10-04T04:29:06.153Z,101754.41
2022-10-04T04:31:35.301Z,101747.13
2022-10-04T04:34:03.359Z,101752.38
2022-10-04T04:36:31.692Z,101747.97
2022-10-04T04:39:26.628Z,101754.16
2022-10-04T04:41:53.122Z,101741.25
2022-10-04T04:44:20.193Z,101731.63
2022-10-04T04:46:47.170Z,101739.72
2022-10-04T04:49:16.466Z,101730.25
2022-10-04T04:51:47.034Z,101729.84
2022-10-04T04:54:15.483Z,101731.38
2022-10-04T04:56:42.462Z,101730.28
2022-10-04T04:59:08.881Z,101732.72
2022-10-04T05:01:46.093Z,101733.56
2022-10-04T05:04:12.609Z,101729.03
2022-10-04T05:06:43.239Z,101723.41
2022-10-04T05:09:30.303Z,101727.56
2022-10-04T05:11:59.199Z,101722.31
2022-10-04T05:14:25.608Z,101713.00
2022-10-04T05:16:53.527Z,101715.72
2022-10-04T05:19:22.972Z,101708.56
2022-10-04T05:21:51.496Z,101713.00
2022-10-04T05:24:29.803Z,101715.75
2022-10-04T05:26:59.187Z,101726.44
2022-10-04T05:29:27.538Z,101723.69
2022-10-04T05:32:13.427Z,101717.25
2022-10-04T05:34:41.299Z,101712.72
2022-10-04T05:37:30.000Z,101717.94
2022-10-04T05:40:14.462Z,101716.84
2022-10-04T05:42:45.369Z,101719.84
2022-10-04T05:45:20.683Z,101718.75
2022-10-04T05:47:51.583Z,101721.78
2022-10-04T05:50:25.963Z,101723.41
2022-10-04T05:52:52.373Z,101720.78
2022-10-04T05:55:40.703Z,101724.63
2022-10-04T05:58:19.056Z,101718.75
2022-10-04T06:00:45.360Z,101717.66
2022-10-04T06:03:21.158Z,101717.41
2022-10-04T06:05:50.764Z,101712.84
2022-10-04T06:08:24.527Z,101706.81
2022-10-04T06:10:53.712Z,101718.34
2022-10-04T06:13:46.729Z,101720.25
2022-10-04T06:16:36.559Z,101716.69
2022-10-04T06:19:18.814Z,101714.63
2022-10-04T06:21:56.931Z,101722.88
2022-10-04T06:24:27.315Z,101730.00
2022-10-04T06:26:56.361Z,101720.41
2022-10-04T06:29:26.613Z,101713.81
2022-10-04T06:32:11.744Z,101713.69
2022-10-04T06:34:56.551Z,101721.50
2022-10-04T06:37:41.703Z,101716.41
2022-10-04T06:40:17.387Z,101716.28
2022-10-04T06:42:46.747Z,101710.41
2022-10-04T06:45:21.989Z,101716.28
2022-10-04T06:48:03.431Z,101709.16
2022-10-04T06:50:33.668Z,101719.16
2022-10-04T06:53:15.452Z,101719.56
2022-10-04T06:55:46.245Z,101720.69
2022-10-04T06:58:39.052Z,101713.69
2022-10-04T07:01:24.085Z,101714.34
2022-10-04T07:03:57.188Z,101715.19
2022-10-04T07:06:29.833Z,101711.22
2022-10-04T07:09:02.803Z,101717.38
2022-10-04T07:11:30.172Z,101715.19
2022-10-04T07:14:03.436Z,101718.63
2022-10-04T07:16:32.850Z,101721.63
2022-10-04T07:18:59.205Z,101724.25
2022-10-04T07:21:27.940Z,101720.25
2022-10-04T07:23:58.359Z,101714.63
2022-10-04T07:26:39.133Z,101730.03
2022-10-04T07:29:20.892Z,101729.69
2022-10-04T07:32:05.804Z,101725.06
2022-10-04T07:34:54.420Z,101730.56
2022-10-04T07:37:21.442Z,101725.34
2022-10-04T07:40:03.010Z,101726.41
2022-10-04T07:42:46.728Z,101736.44
2022-10-04T07:45:29.715Z,101738.81
2022-10-04T07:48:16.328Z,101736.34
2022-10-04T07:50:51.708Z,101736.31
2022-10-04T07:53:22.039Z,101731.63
2022-10-04T07:56:02.559Z,101732.72
2022-10-04T07:58:44.747Z,101736.16
2022-10-04T08:01:37.239Z,101737.38
2022-10-04T08:04:22.344Z,101730.38
2022-10-04T08:06:48.664Z,101736.84
2022-10-04T08:09:16.619Z,101716.41
2022-10-04T08:11:50.796Z,101716.53
2022-10-04T08:14:23.034Z,101719.44
2022-10-04T08:16:52.525Z,101725.03
2022-10-04T08:19:25.007Z,101730.81
2022-10-04T08:22:03.643Z,101718.47
2022-10-04T08:24:35.616Z,101721.75
2022-10-04T08:27:20.565Z,101719.41
2022-10-04T08:29:53.898Z,101717.19
2022-10-04T08:32:26.010Z,101716.41
2022-10-04T08:34:55.480Z,101720.13
2022-10-04T08:37:34.353Z,101720.59
2022-10-04T08:40:19.465Z,101715.28
2022-10-04T08:43:04.771Z,101715.38
2022-10-04T08:45:48.635Z,101719.34
2022-10-04T08:48:22.473Z,101718.47
2022-10-04T08:51:02.043Z,101717.31
2022-10-04T08:53:31.144Z,101713.88
2022-10-04T08:56:17.516Z,101712.19
2022-10-04T08:58:47.179Z,101720.25
2022-10-04T09:01:45.900Z,101719.53
2022-10-04T09:04:36.387Z,101716.97
2022-10-04T09:07:21.720Z,101715.44
2022-10-04T09:10:06.625Z,101707.72
2022-10-04T09:12:56.323Z,101710.91
2022-10-04T09:15:22.840Z,101702.56
2022-10-04T09:18:02.713Z,101706.00
2022-10-04T09:20:38.752Z,101708.72
2022-10-04T09:23:11.952Z,101707.47
2022-10-04T09:25:41.691Z,101703.88
2022-10-04T09:28:15.296Z,101702.97
2022-10-04T09:30:41.775Z,101702.72
2022-10-04T09:33:17.097Z,101698.72
2022-10-04T09:35:49.697Z,101691.94
2022-10-04T09:38:25.261Z,101695.00
2022-10-04T09:41:10.435Z,101697.97
2022-10-04T09:43:55.714Z,101698.31
2022-10-04T09:46:34.920Z,101700.06
2022-10-04T09:49:16.038Z,101696.22
2022-10-04T09:51:49.054Z,101699.88
2022-10-04T09:54:15.644Z,101694.13
2022-10-04T09:56:59.299Z,101694.94
2022-10-04T09:59:28.658Z,101692.00
2022-10-04T10:02:13.801Z,101692.81
2022-10-04T10:05:06.557Z,101680.72
2022-10-04T10:07:44.693Z,101685.03
2022-10-04T10:10:32.761Z,101693.88
2022-10-04T10:13:20.725Z,101689.94
2022-10-04T10:15:50.544Z,101691.44
2022-10-04T10:18:26.877Z,101690.34
2022-10-04T10:21:10.491Z,101693.31
2022-10-04T10:23:55.284Z,101689.06
2022-10-04T10:26:57.211Z,101688.56
2022-10-04T10:29:29.416Z,101680.69
2022-10-04T10:32:15.127Z,101684.47
2022-10-04T10:34:57.029Z,101673.31
2022-10-04T10:37:35.704Z,101670.66
2022-10-04T10:40:08.371Z,101678.53
2022-10-04T10:42:34.704Z,101674.78
2022-10-04T10:45:29.777Z,101670.16
2022-10-04T10:48:01.632Z,101662.44
2022-10-04T10:50:58.338Z,101666.53
2022-10-04T10:53:45.118Z,101663.41
2022-10-04T10:56:32.677Z,101661.75
2022-10-04T10:59:11.673Z,101652.19
2022-10-04T11:02:05.658Z,101654.28
2022-10-04T11:04:35.629Z,101651.66
2022-10-04T11:07:02.827Z,101654.81
2022-10-04T11:09:38.998Z,101647.88
2022-10-04T11:12:20.627Z,101650.25
2022-10-04T11:14:50.038Z,101657.84
2022-10-04T11:17:35.631Z,101654.06
2022-10-04T11:20:05.402Z,101644.50
2022-10-04T11:22:50.452Z,101640.84
2022-10-04T11:25:36.053Z,101640.28
2022-10-04T11:28:02.604Z,101622.09
2022-10-04T11:30:50.758Z,101627.47
2022-10-04T11:33:20.169Z,101633.22
2022-10-04T11:35:46.472Z,101626.38
2022-10-04T11:38:36.135Z,101622.44
2022-10-04T11:41:19.052Z,101621.19
2022-10-04T11:44:16.029Z,101625.84
2022-10-04T11:47:01.068Z,101619.94
2022-10-04T11:49:46.026Z,101612.09
2022-10-04T11:52:31.433Z,101611.88
2022-10-04T11:54:57.813Z,101617.69
2022-10-04T11:57:34.013Z,101628.94
2022-10-04T12:00:15.945Z,101622.84
2022-10-04T12:03:01.539Z,101629.75
2022-10-04T12:05:48.966Z,101626.28
2022-10-04T12:08:18.389Z,101630.41
2022-10-04T12:10:49.460Z,101629.66
2022-10-04T12:13:15.818Z,101625.84
2022-10-04T12:16:00.304Z,101620.94
2022-10-04T12:18:28.474Z,101617.69
2022-10-04T12:21:04.094Z,101614.16
2022-10-04T12:23:42.360Z,101606.97
2022-10-04T12:26:32.773Z,101599.06
2022-10-04T12:29:02.286Z,101597.25
2022-10-04T12:31:34.218Z,101588.09
2022-10-04T12:34:14.672Z,101591.38
2022-10-04T12:36:59.814Z,101581.47
2022-10-04T12:39:44.957Z,101577.28
2022-10-04T12:42:14.509Z,101582.94
2022-10-04T12:44:43.854Z,101587.38
2022-10-04T12:47:29.105Z,101577.66
2022-10-04T12:50:01.605Z,101565.06
2022-10-04T12:52:31.287Z,101570.03
2022-10-04T12:55:03.717Z,101567.41
2022-10-04T12:57:33.121Z,101568.38
2022-10-04T13:00:03.528Z,101559.56
2022-10-04T13:02:45.362Z,101557.06
2022-10-04T13:05:32.000Z,101561.28
2022-10-04T13:08:03.887Z,101561.44
2022-10-04T13:10:45.625Z,101553.25
2022-10-04T13:13:34.949Z,101557.97
2022-10-04T13:19:09.472Z,101555.19
2022-10-04T13:21:36.201Z,101556.41
2022-10-04T13:24:05.584Z,101544.47
2022-10-04T13:26:31.937Z,101546.59
2022-10-04T13:29:07.065Z,101544.47
2022-10-04T13:31:48.976Z,101526.44
2022-10-04T13:34:23.990Z,101518.97
2022-10-04T13:36:50.407Z,101529.50
2022-10-04T13:39:19.851Z,101530.41
2022-10-04T13:42:03.003Z,101523.50
2022-10-04T13:44:35.432Z,101527.91
2022-10-04T13:47:04.668Z,101511.06
2022-10-04T13:49:36.813Z,101516.44
2022-10-04T13:52:37.444Z,101505.78
2022-10-04T13:55:41.235Z,101503.50
2022-10-04T13:58:13.417Z,101501.31
2022-10-04T14:01:12.358Z,101492.91
2022-10-04T14:03:44.966Z,101497.50
2022-10-04T14:06:30.687Z,101486.97
2022-10-04T14:08:57.081Z,101479.25
2022-10-04T14:11:42.721Z,101480.53
2022-10-04T14:14:15.191Z,101481.94
2022-10-04T14:16:44.793Z,101487.34
2022-10-04T14:19:35.059Z,101484.25
2022-10-04T14:22:07.608Z,101487.47
2022-10-04T14:24:36.888Z,101496.75
2022-10-04T14:27:20.528Z,101491.59
2022-10-04T14:30:07.568Z,101483.69
2022-10-04T14:32:52.631Z,101482.06
2022-10-04T14:35:37.827Z,101479.22
2022-10-04T14:38:10.281Z,101467.50
2022-10-04T14:40:45.956Z,101474.28
2022-10-04T14:43:32.564Z,101469.81
2022-10-04T14:46:06.117Z,101464.84
2022-10-04T14:48:49.224Z,101465.66
2022-10-04T14:51:19.371Z,101454.53
2022-10-04T14:53:49.661Z,101451.03
2022-10-04T14:56:24.169Z,101456.03
2022-10-04T14:59:16.971Z,101462.38
2022-10-04T15:02:04.558Z,101465.22
2022-10-04T15:04:33.952Z,101461.56
2022-10-04T15:07:00.338Z,101456.25
2022-10-04T15:09:46.755Z,101453.41
2022-10-04T15:12:40.682Z,101446.38
2022-10-04T15:15:12.860Z,101451.28
2022-10-04T15:17:43.074Z,101449.97
2022-10-04T15:20:19.652Z,101450.66
2022-10-04T15:22:49.691Z,101443.81
2022-10-04T15:25:34.503Z,101440.66
2022-10-04T15:28:04.741Z,101443.50
2022-10-04T15:30:49.120Z,101445.06
2022-10-04T15:33:28.074Z,101440.44
2022-10-04T15:35:54.412Z,101437.47
2022-10-04T15:38:32.976Z,101453.28
2022-10-04T15:41:06.354Z,101453.09
2022-10-04T15:44:05.828Z,101453.22
2022-10-04T15:46:38.607Z,101452.38
2022-10-04T15:49:25.562Z,101448.44
2022-10-04T15:52:07.297Z,101447.63
2022-10-04T15:54:47.136Z,101438.78
2022-10-04T15:57:31.169Z,101442.59
2022-10-04T15:59:57.514Z,101439.28
2022-10-04T16:02:42.665Z,101443.88
2022-10-04T16:05:14.809Z,101452.88
2022-10-04T16:07:52.897Z,101446.41
2022-10-04T16:10:26.225Z,101451.78
2022-10-04T16:12:52.583Z,101463.97
2022-10-04T16:15:38.395Z,101459.69
2022-10-04T16:18:12.219Z,101454.16
2022-10-04T16:20:55.265Z,101456.81
2022-10-04T16:23:28.058Z,101456.38
2022-10-04T16:25:58.850Z,101450.88
2022-10-04T16:28:44.739Z,101444.97
2022-10-04T16:31:21.016Z,101450.13
2022-10-04T16:34:00.865Z,101441.41
2022-10-04T16:36:44.543Z,101448.91
2022-10-04T16:39:29.806Z,101446.47
2022-10-04T16:42:01.641Z,101432.78
2022-10-04T16:44:32.448Z,101428.41
2022-10-04T16:47:01.269Z,101422.13
2022-10-04T16:49:30.621Z,101422.47
2022-10-04T16:52:12.324Z,101427.34
2022-10-04T16:54:57.908Z,101431.78
2022-10-04T16:57:24.890Z,101434.31
2022-10-04T16:59:53.313Z,101438.16
2022-10-04T17:02:25.571Z,101436.09
2022-10-04T17:05:01.207Z,101431.97
2022-10-04T17:07:33.890Z,101441.63
2022-10-04T17:10:19.938Z,101442.38
2022-10-04T17:12:46.699Z,101432.19
2022-10-04T17:15:36.945Z,101444.28
2022-10-04T17:18:25.592Z,101444.69
2022-10-04T17:20:56.807Z,101432.81
2022-10-04T17:23:26.994Z,101433.00
2022-10-04T17:26:11.663Z,101435.94
2022-10-04T17:29:10.579Z,101441.31
2022-10-04T17:31:52.105Z,101445.28
2022-10-04T17:34:30.612Z,101455.59
2022-10-04T17:37:05.001Z,101452.81
2022-10-04T17:39:40.270Z,101445.47
2022-10-04T17:42:22.759Z,101455.00
2022-10-04T17:44:56.158Z,101451.47
2022-10-04T17:47:27.214Z,101451.47
2022-10-04T17:50:21.729Z,101454.00
2022-10-04T17:53:12.267Z,101452.44
2022-10-04T17:56:07.979Z,101458.09
2022-10-04T17:58:41.561Z,101467.50
2022-10-04T18:01:14.159Z,101462.16
2022-10-04T18:03:44.078Z,101458.22
2022-10-04T18:06:25.533Z,101457.94
2022-10-04T18:08:59.947Z,101467.19
2022-10-04T18:11:32.364Z,101460.81
2022-10-04T18:14:02.332Z,101474.34
2022-10-04T18:16:43.515Z,101471.22
2022-10-04T18:19:29.062Z,101470.50
2022-10-04T18:22:02.294Z,101470.19
2022-10-04T18:24:30.401Z,101467.28
2022-10-04T18:27:01.058Z,101462.53
2022-10-04T18:29:37.926Z,101456.66
2022-10-04T18:32:30.749Z,101472.13
2022-10-04T18:34:59.043Z,101463.59
2022-10-04T18:37:28.585Z,101489.41
2022-10-04T18:40:02.370Z,101493.97
2022-10-04T18:42:30.217Z,101491.63
2022-10-04T18:44:59.122Z,101502.63
2022-10-04T18:47:37.022Z,101503.59
2022-10-04T18:50:24.156Z,101504.97
2022-10-04T18:53:09.138Z,101502.84
2022-10-04T18:55:41.629Z,101507.59
2022-10-04T18:58:40.772Z,101507.78
2022-10-04T19:01:37.819Z,101518.66
2022-10-04T19:04:10.431Z,101511.28
2022-10-04T19:06:38.598Z,101515.03
2022-10-04T19:09:28.444Z,101507.69
2022-10-04T19:11:54.782Z,101514.44
2022-10-04T19:14:39.926Z,101501.00
2022-10-04T19:17:18.867Z,101493.63
2022-10-04T19:20:04.237Z,101485.13
2022-10-04T19:22:42.707Z,101477.13
2022-10-04T19:25:12.108Z,101473.81
2022-10-04T19:27:41.067Z,101468.94
2022-10-04T19:30:13.468Z,101466.81
2022-10-04T19:32:42.857Z,101474.84
2022-10-04T19:35:29.937Z,101479.44
2022-10-04T19:38:14.824Z,101475.53
2022-10-04T19:40:48.582Z,101468.81
2022-10-04T19:43:20.678Z,101481.09
2022-10-04T19:45:51.527Z,101476.22
2022-10-04T19:48:24.788Z,101481.78
2022-10-04T19:51:03.614Z,101488.03
2022-10-04T19:53:40.668Z,101495.25
2022-10-04T19:56:16.389Z,101490.31
2022-10-04T19:58:44.909Z,101494.25
2022-10-04T20:01:16.575Z,101493.63
2022-10-04T20:03:43.302Z,101497.41
2022-10-04T20:06:10.701Z,101500.34
2022-10-04T20:08:49.350Z,101492.94
2022-10-04T20:11:45.152Z,101483.59
2022-10-04T20:14:18.947Z,101490.03
2022-10-04T20:16:47.815Z,101490.97
2022-10-04T20:19:24.420Z,101485.44
2022-10-04T20:21:51.033Z,101491.81
2022-10-04T20:24:24.220Z,101487.06
2022-10-04T20:26:55.102Z,101486.91
2022-10-04T20:29:37.242Z,101491.34
2022-10-04T20:32:04.755Z,101487.72
2022-10-04T20:34:37.023Z,101486.44
2022-10-04T20:37:08.166Z,101487.56
2022-10-04T20:39:40.506Z,101485.13
2022-10-04T20:42:19.614Z,101482.00
2022-10-04T20:44:54.085Z,101476.91
2022-10-04T20:47:28.833Z,101472.50
2022-10-04T20:49:57.692Z,101488.41
2022-10-04T20:52:31.544Z,101473.63
2022-10-04T20:55:01.272Z,101469.72
2022-10-04T20:57:30.295Z,101475.94
2022-10-04T20:59:57.774Z,101475.28
2022-10-04T21:02:27.290Z,101465.78
2022-10-04T21:04:54.092Z,101468.06
2022-10-04T21:07:21.670Z,101477.91
2022-10-04T21:09:48.443Z,101469.22
2022-10-04T21:12:33.488Z,101470.34
2022-10-04T21:15:06.193Z,101472.50
2022-10-04T21:17:32.534Z,101463.16
2022-10-04T21:19:58.878Z,101470.19
2022-10-04T21:22:25.200Z,101480.84
2022-10-04T21:24:51.572Z,101473.47
2022-10-04T21:27:32.094Z,101477.22
2022-10-04T21:29:59.194Z,101486.06
2022-10-04T21:32:26.744Z,101481.13
2022-10-04T21:34:54.408Z,101480.50
2022-10-04T21:37:21.678Z,101484.75
2022-10-04T21:39:48.046Z,101489.34
2022-10-04T21:42:14.782Z,101489.81
2022-10-04T21:44:41.204Z,101484.06
2022-10-04T21:47:07.582Z,101477.19
2022-10-04T21:49:33.946Z,101474.91
2022-10-04T21:52:00.307Z,101470.63
2022-10-04T21:54:26.671Z,101473.56
2022-10-04T21:56:53.951Z,101486.66
2022-10-04T21:59:20.602Z,101484.69
2022-10-04T22:01:47.179Z,101481.25
2022-10-04T22:04:13.633Z,101482.06
2022-10-04T22:06:40.370Z,101478.00
2022-10-04T22:09:06.755Z,101478.28
2022-10-04T22:11:33.185Z,101483.81
2022-10-04T22:14:00.056Z,101478.75
2022-10-04T22:16:26.625Z,101482.66
2022-10-04T22:18:53.028Z,101474.94
2022-10-04T22:21:19.464Z,101482.16
2022-10-04T22:23:45.815Z,101470.69
2022-10-04T22:26:13.515Z,101465.94
2022-10-04T22:28:43.192Z,101460.38
2022-10-04T22:31:13.714Z,101459.75
2022-10-04T22:33:41.876Z,101466.25
2022-10-04T22:36:11.167Z,101461.50
2022-10-04T22:38:37.676Z,101456.25
2022-10-04T22:41:14.080Z,101462.47
2022-10-04T22:43:40.487Z,101480.28
2022-10-04T22:46:12.058Z,101480.59
2022-10-04T22:48:38.603Z,101479.25
2022-10-04T22:51:04.983Z,101479.59
2022-10-04T22:53:31.322Z,101467.16
2022-10-04T22:55:57.936Z,101473.53
2022-10-04T22:58:24.297Z,101466.50
2022-10-04T23:00:50.659Z,101464.84
2022-10-04T23:03:17.146Z,101460.59
2022-10-04T23:05:44.259Z,101452.75
2022-10-04T23:08:10.598Z,101450.63
2022-10-04T23:10:36.957Z,101462.72
2022-10-04T23:13:03.321Z,101455.34
2022-10-04T23:15:29.676Z,101462.03
2022-10-04T23:17:56.023Z,101460.25
2022-10-04T23:20:22.868Z,101455.16
2022-10-04T23:22:50.621Z,101454.00
2022-10-04T23:25:18.795Z,101452.69
2022-10-04T23:27:45.839Z,101456.56
2022-10-04T23:30:16.724Z,101451.34
2022-10-04T23:32:44.605Z,101454.78
2022-10-04T23:35:22.394Z,101442.69
2022-10-04T23:37:48.966Z,101449.03
2022-10-04T23:40:17.564Z,101450.03
2022-10-04T23:42:44.401Z,101445.59
2022-10-04T23:45:28.999Z,101449.22
2022-10-04T23:47:56.920Z,101446.44
2022-10-04T23:50:26.385Z,101442.63
2022-10-04T23:52:55.202Z,101439.63
2022-10-04T23:55:28.925Z,101434.59
2022-10-04T23:57:55.292Z,101431.03
